sensor_id;sensor_type;location;lat;lon;timestamp;temperature;humidity
31979;DHT22;18502;43.574;1.276;2023-04-19T05:34:16;8.90;99.90
31979;DHT22;18502;43.574;1.276;2023-04-19T05:36:42;9.00;99.90
31979;DHT22;18502;43.574;1.276;2023-04-19T05:39:07;9.10;99.90
31979;DHT22;18502;43.574;1.276;2023-04-19T05:41:33;9.10;99.90
31979;DHT22;18502;43.574;1.276;2023-04-19T05:43:59;9.20;99.90
31979;DHT22;18502;43.574;1.276;2023-04-19T05:46:25;9.30;99.90
31979;DHT22;18502;43.574;1.276;2023-04-19T05:48:51;9.30;99.90
31979;DHT22;18502;43.574;1.276;2023-04-19T05:51:17;9.50;99.90
31979;DHT22;18502;43.574;1.276;2023-04-19T05:53:44;9.60;99.90
31979;DHT22;18502;43.574;1.276;2023-04-19T05:56:10;9.70;99.90
31979;DHT22;18502;43.574;1.276;2023-04-19T05:58:36;9.90;99.90
31979;DHT22;18502;43.574;1.276;2023-04-19T06:01:02;10.00;99.90
31979;DHT22;18502;43.574;1.276;2023-04-19T06:03:28;10.00;99.90
31979;DHT22;18502;43.574;1.276;2023-04-19T06:05:54;10.10;99.90
31979;DHT22;18502;43.574;1.276;2023-04-19T06:08:20;10.20;99.90
31979;DHT22;18502;43.574;1.276;2023-04-19T06:10:46;10.30;99.90
31979;DHT22;18502;43.574;1.276;2023-04-19T06:13:14;10.40;99.90
31979;DHT22;18502;43.574;1.276;2023-04-19T06:15:39;10.60;99.90
31979;DHT22;18502;43.574;1.276;2023-04-19T06:18:05;10.70;99.90
31979;DHT22;18502;43.574;1.276;2023-04-19T06:20:35;10.80;99.90
31979;DHT22;18502;43.574;1.276;2023-04-19T06:23:01;10.90;99.90
31979;DHT22;18502;43.574;1.276;2023-04-19T06:25:27;10.90;99.90
31979;DHT22;18502;43.574;1.276;2023-04-19T06:27:52;11.00;99.90
31979;DHT22;18502;43.574;1.276;2023-04-19T06:30:18;11.10;99.90
31979;DHT22;18502;43.574;1.276;2023-04-19T06:32:44;11.20;99.90
31979;DHT22;18502;43.574;1.276;2023-04-19T06:35:09;11.30;99.90
31979;DHT22;18502;43.574;1.276;2023-04-19T06:37:35;11.30;99.90
31979;DHT22;18502;43.574;1.276;2023-04-19T06:40:01;11.40;99.90
31979;DHT22;18502;43.574;1.276;2023-04-19T06:42:27;11.50;99.90
31979;DHT22;18502;43.574;1.276;2023-04-19T06:44:53;11.60;99.90
31979;DHT22;18502;43.574;1.276;2023-04-19T06:47:21;11.60;99.90
31979;DHT22;18502;43.574;1.276;2023-04-19T06:49:47;11.70;99.90
31979;DHT22;18502;43.574;1.276;2023-04-19T06:52:13;11.80;99.90
31979;DHT22;18502;43.574;1.276;2023-04-19T06:54:38;11.80;99.90
31979;DHT22;18502;43.574;1.276;2023-04-19T06:57:04;11.90;99.90
31979;DHT22;18502;43.574;1.276;2023-04-19T06:59:29;12.00;99.90
31979;DHT22;18502;43.574;1.276;2023-04-19T07:01:56;12.00;99.90
31979;DHT22;18502;43.574;1.276;2023-04-19T07:04:24;12.20;99.90
31979;DHT22;18502;43.574;1.276;2023-04-19T07:06:50;12.20;99.90
31979;DHT22;18502;43.574;1.276;2023-04-19T07:09:15;12.30;99.90
31979;DHT22;18502;43.574;1.276;2023-04-19T07:11:41;12.30;99.90
31979;DHT22;18502;43.574;1.276;2023-04-19T07:14:07;12.30;99.90
31979;DHT22;18502;43.574;1.276;2023-04-19T07:16:32;12.40;99.90
31979;DHT22;18502;43.574;1.276;2023-04-19T07:18:58;12.50;99.90
31979;DHT22;18502;43.574;1.276;2023-04-19T07:21:24;12.60;99.90
31979;DHT22;18502;43.574;1.276;2023-04-19T07:23:53;12.60;99.90
31979;DHT22;18502;43.574;1.276;2023-04-19T07:26:18;12.70;99.90
31979;DHT22;18502;43.574;1.276;2023-04-19T07:28:44;12.70;99.90
31979;DHT22;18502;43.574;1.276;2023-04-19T07:31:14;12.80;99.90
31979;DHT22;18502;43.574;1.276;2023-04-19T07:33:41;12.80;99.90
31979;DHT22;18502;43.574;1.276;2023-04-19T07:36:07;13.00;99.90
31979;DHT22;18502;43.574;1.276;2023-04-19T07:38:33;13.10;99.90
31979;DHT22;18502;43.574;1.276;2023-04-19T07:40:59;13.20;99.90
31979;DHT22;18502;43.574;1.276;2023-04-19T07:43:24;13.20;99.90
31979;DHT22;18502;43.574;1.276;2023-04-19T07:45:51;13.40;99.90
31979;DHT22;18502;43.574;1.276;2023-04-19T07:48:17;13.60;99.90
31979;DHT22;18502;43.574;1.276;2023-04-19T07:50:43;13.60;99.90
31979;DHT22;18502;43.574;1.276;2023-04-19T07:53:08;13.70;99.90
31979;DHT22;18502;43.574;1.276;2023-04-19T07:55:34;13.70;99.90
31979;DHT22;18502;43.574;1.276;2023-04-19T07:58:01;13.80;99.90
31979;DHT22;18502;43.574;1.276;2023-04-19T08:00:26;13.90;99.90
31979;DHT22;18502;43.574;1.276;2023-04-19T08:02:54;14.10;99.90
31979;DHT22;18502;43.574;1.276;2023-04-19T08:05:21;14.10;99.90
31979;DHT22;18502;43.574;1.276;2023-04-19T08:07:47;14.20;99.90
31979;DHT22;18502;43.574;1.276;2023-04-19T08:10:13;14.30;99.90
31979;DHT22;18502;43.574;1.276;2023-04-19T08:12:39;14.30;99.90
31979;DHT22;18502;43.574;1.276;2023-04-19T08:15:06;14.30;99.90
31979;DHT22;18502;43.574;1.276;2023-04-19T08:17:33;14.50;99.90
31979;DHT22;18502;43.574;1.276;2023-04-19T08:19:58;14.60;99.90
31979;DHT22;18502;43.574;1.276;2023-04-19T08:22:24;14.50;99.90
31979;DHT22;18502;43.574;1.276;2023-04-19T08:24:50;14.70;99.90
31979;DHT22;18502;43.574;1.276;2023-04-19T08:27:16;14.80;99.90
31979;DHT22;18502;43.574;1.276;2023-04-19T08:29:42;14.60;99.90
31979;DHT22;18502;43.574;1.276;2023-04-19T08:32:08;14.70;99.90
31979;DHT22;18502;43.574;1.276;2023-04-19T08:34:35;14.90;99.90
31979;DHT22;18502;43.574;1.276;2023-04-19T08:37:03;15.00;99.90
31979;DHT22;18502;43.574;1.276;2023-04-19T08:39:32;15.10;99.90
31979;DHT22;18502;43.574;1.276;2023-04-19T08:42:03;15.30;99.90
31979;DHT22;18502;43.574;1.276;2023-04-19T08:44:30;15.20;99.90
31979;DHT22;18502;43.574;1.276;2023-04-19T08:46:59;15.10;99.90
31979;DHT22;18502;43.574;1.276;2023-04-19T08:49:28;15.30;99.90
31979;DHT22;18502;43.574;1.276;2023-04-19T08:51:56;15.10;99.90
31979;DHT22;18502;43.574;1.276;2023-04-19T08:54:22;15.10;99.90
31979;DHT22;18502;43.574;1.276;2023-04-19T08:56:49;15.10;99.90
31979;DHT22;18502;43.574;1.276;2023-04-19T08:59:15;15.10;99.90
31979;DHT22;18502;43.574;1.276;2023-04-19T09:01:41;15.40;99.90
31979;DHT22;18502;43.574;1.276;2023-04-19T09:04:07;15.30;99.90
31979;DHT22;18502;43.574;1.276;2023-04-19T09:06:37;15.40;99.90
31979;DHT22;18502;43.574;1.276;2023-04-19T09:09:13;15.50;99.90
31979;DHT22;18502;43.574;1.276;2023-04-19T09:11:39;15.50;99.90
31979;DHT22;18502;43.574;1.276;2023-04-19T09:14:09;15.70;99.90
31979;DHT22;18502;43.574;1.276;2023-04-19T09:16:35;15.90;99.90
31979;DHT22;18502;43.574;1.276;2023-04-19T09:19:04;15.70;99.90
31979;DHT22;18502;43.574;1.276;2023-04-19T09:21:31;15.70;99.90
31979;DHT22;18502;43.574;1.276;2023-04-19T09:23:58;15.90;99.90
31979;DHT22;18502;43.574;1.276;2023-04-19T09:26:24;15.90;99.90
31979;DHT22;18502;43.574;1.276;2023-04-19T09:28:58;15.80;99.90
31979;DHT22;18502;43.574;1.276;2023-04-19T09:31:26;16.20;99.90
31979;DHT22;18502;43.574;1.276;2023-04-19T09:33:53;16.50;99.90
31979;DHT22;18502;43.574;1.276;2023-04-19T09:36:33;16.80;99.90
31979;DHT22;18502;43.574;1.276;2023-04-19T09:38:59;16.80;99.90
31979;DHT22;18502;43.574;1.276;2023-04-19T09:41:25;16.90;99.90
31979;DHT22;18502;43.574;1.276;2023-04-19T09:43:52;16.80;99.90
31979;DHT22;18502;43.574;1.276;2023-04-19T09:51:50;16.80;99.90
31979;DHT22;18502;43.574;1.276;2023-04-19T09:54:17;16.90;99.90
31979;DHT22;18502;43.574;1.276;2023-04-19T09:56:44;16.80;99.90
31979;DHT22;18502;43.574;1.276;2023-04-19T09:59:11;17.00;99.50
31979;DHT22;18502;43.574;1.276;2023-04-19T10:01:43;17.00;99.90
31979;DHT22;18502;43.574;1.276;2023-04-19T10:04:14;17.20;99.90
31979;DHT22;18502;43.574;1.276;2023-04-19T10:06:51;17.10;99.80
31979;DHT22;18502;43.574;1.276;2023-04-19T10:09:18;17.40;99.90
31979;DHT22;18502;43.574;1.276;2023-04-19T10:11:52;17.50;97.10
31979;DHT22;18502;43.574;1.276;2023-04-19T10:14:24;17.60;98.70
31979;DHT22;18502;43.574;1.276;2023-04-19T10:16:52;17.60;97.30
31979;DHT22;18502;43.574;1.276;2023-04-19T10:19:19;17.70;97.40
31979;DHT22;18502;43.574;1.276;2023-04-19T10:21:47;17.70;98.30
31979;DHT22;18502;43.574;1.276;2023-04-19T10:24:14;17.90;97.90
31979;DHT22;18502;43.574;1.276;2023-04-19T10:29:58;18.10;97.60
31979;DHT22;18502;43.574;1.276;2023-04-19T10:32:29;18.40;97.50
31979;DHT22;18502;43.574;1.276;2023-04-19T10:35:00;18.50;96.60
31979;DHT22;18502;43.574;1.276;2023-04-19T10:37:27;18.70;94.70
31979;DHT22;18502;43.574;1.276;2023-04-19T10:39:52;18.30;96.50
31979;DHT22;18502;43.574;1.276;2023-04-19T10:42:18;18.70;93.90
31979;DHT22;18502;43.574;1.276;2023-04-19T10:47:50;18.60;94.80
31979;DHT22;18502;43.574;1.276;2023-04-19T10:50:17;18.80;91.70
31979;DHT22;18502;43.574;1.276;2023-04-19T10:52:43;20.20;88.30
31979;DHT22;18502;43.574;1.276;2023-04-19T10:55:14;22.30;83.70
31979;DHT22;18502;43.574;1.276;2023-04-19T10:58:03;25.00;70.70
31979;DHT22;18502;43.574;1.276;2023-04-19T11:00:28;25.60;66.90
31979;DHT22;18502;43.574;1.276;2023-04-19T11:03:49;27.10;57.60
31979;DHT22;18502;43.574;1.276;2023-04-19T11:06:17;26.50;52.80
31979;DHT22;18502;43.574;1.276;2023-04-19T11:08:51;28.40;52.60
31979;DHT22;18502;43.574;1.276;2023-04-19T11:11:18;29.40;43.50
31979;DHT22;18502;43.574;1.276;2023-04-19T11:13:46;26.90;48.30
31979;DHT22;18502;43.574;1.276;2023-04-19T11:16:12;29.40;44.40
31979;DHT22;18502;43.574;1.276;2023-04-19T11:18:38;31.40;42.50
31979;DHT22;18502;43.574;1.276;2023-04-19T11:21:04;33.20;36.60
31979;DHT22;18502;43.574;1.276;2023-04-19T11:23:30;31.10;38.20
31979;DHT22;18502;43.574;1.276;2023-04-19T11:25:55;32.40;34.50
31979;DHT22;18502;43.574;1.276;2023-04-19T11:28:21;32.60;32.40
31979;DHT22;18502;43.574;1.276;2023-04-19T11:30:48;32.70;30.40
31979;DHT22;18502;43.574;1.276;2023-04-19T11:33:14;32.40;34.10
31979;DHT22;18502;43.574;1.276;2023-04-19T11:35:40;33.40;32.20
31979;DHT22;18502;43.574;1.276;2023-04-19T11:38:07;35.20;28.90
31979;DHT22;18502;43.574;1.276;2023-04-19T11:40:37;36.70;28.20
31979;DHT22;18502;43.574;1.276;2023-04-19T11:43:03;38.10;26.90
31979;DHT22;18502;43.574;1.276;2023-04-19T11:45:32;36.30;25.10
31979;DHT22;18502;43.574;1.276;2023-04-19T11:47:59;36.60;23.60
31979;DHT22;18502;43.574;1.276;2023-04-19T11:50:42;37.00;23.20
31979;DHT22;18502;43.574;1.276;2023-04-19T11:53:16;35.40;24.60
31979;DHT22;18502;43.574;1.276;2023-04-19T11:55:52;33.50;23.40
31979;DHT22;18502;43.574;1.276;2023-04-19T12:00:51;29.70;29.40
31979;DHT22;18502;43.574;1.276;2023-04-19T12:03:22;32.70;28.10
31979;DHT22;18502;43.574;1.276;2023-04-19T12:05:55;36.30;24.20
31979;DHT22;18502;43.574;1.276;2023-04-19T12:08:51;36.10;23.20
31979;DHT22;18502;43.574;1.276;2023-04-19T12:11:19;37.10;23.80
31979;DHT22;18502;43.574;1.276;2023-04-19T12:13:46;38.40;20.30
31979;DHT22;18502;43.574;1.276;2023-04-19T12:16:12;36.80;21.80
31979;DHT22;18502;43.574;1.276;2023-04-19T12:18:49;35.00;21.90
31979;DHT22;18502;43.574;1.276;2023-04-19T12:21:25;35.50;21.40
31979;DHT22;18502;43.574;1.276;2023-04-19T12:23:59;38.00;21.10
31979;DHT22;18502;43.574;1.276;2023-04-19T12:26:28;39.70;18.50
31979;DHT22;18502;43.574;1.276;2023-04-19T12:28:54;39.40;17.30
31979;DHT22;18502;43.574;1.276;2023-04-19T12:31:20;40.00;21.20
31979;DHT22;18502;43.574;1.276;2023-04-19T12:33:46;41.20;17.40
31979;DHT22;18502;43.574;1.276;2023-04-19T12:36:12;42.00;16.20
31979;DHT22;18502;43.574;1.276;2023-04-19T12:38:37;41.60;16.00
31979;DHT22;18502;43.574;1.276;2023-04-19T12:41:03;41.80;16.00
31979;DHT22;18502;43.574;1.276;2023-04-19T12:43:29;42.40;16.40
31979;DHT22;18502;43.574;1.276;2023-04-19T12:45:56;41.70;14.20
31979;DHT22;18502;43.574;1.276;2023-04-19T12:48:23;35.40;17.30
31979;DHT22;18502;43.574;1.276;2023-04-19T12:50:48;33.70;19.00
31979;DHT22;18502;43.574;1.276;2023-04-19T12:53:14;34.70;20.40
31979;DHT22;18502;43.574;1.276;2023-04-19T12:55:40;37.70;16.90
31979;DHT22;18502;43.574;1.276;2023-04-19T12:58:06;38.80;17.00
31979;DHT22;18502;43.574;1.276;2023-04-19T13:00:31;39.50;16.10
31979;DHT22;18502;43.574;1.276;2023-04-19T13:02:57;41.20;14.20
31979;DHT22;18502;43.574;1.276;2023-04-19T13:05:23;42.00;14.10
31979;DHT22;18502;43.574;1.276;2023-04-19T13:07:49;42.40;11.70
31979;DHT22;18502;43.574;1.276;2023-04-19T13:10:14;43.40;12.60
31979;DHT22;18502;43.574;1.276;2023-04-19T13:12:40;43.50;8.90
31979;DHT22;18502;43.574;1.276;2023-04-19T13:15:06;42.60;8.80
31979;DHT22;18502;43.574;1.276;2023-04-19T13:17:32;41.20;11.70
31979;DHT22;18502;43.574;1.276;2023-04-19T13:19:59;39.80;12.20
31979;DHT22;18502;43.574;1.276;2023-04-19T13:22:25;40.70;11.50
31979;DHT22;18502;43.574;1.276;2023-04-19T13:24:51;40.00;14.20
31979;DHT22;18502;43.574;1.276;2023-04-19T13:27:16;41.70;10.80
31979;DHT22;18502;43.574;1.276;2023-04-19T13:29:42;36.10;12.30
31979;DHT22;18502;43.574;1.276;2023-04-19T13:32:08;36.70;15.00
31979;DHT22;18502;43.574;1.276;2023-04-19T13:34:37;39.90;12.40
31979;DHT22;18502;43.574;1.276;2023-04-19T13:37:05;42.80;11.10
31979;DHT22;18502;43.574;1.276;2023-04-19T13:39:30;44.20;9.90
31979;DHT22;18502;43.574;1.276;2023-04-19T13:41:56;44.30;9.20
31979;DHT22;18502;43.574;1.276;2023-04-19T13:44:22;43.80;9.50
31979;DHT22;18502;43.574;1.276;2023-04-19T13:46:49;44.60;9.50
31979;DHT22;18502;43.574;1.276;2023-04-19T13:49:17;44.50;9.20
31979;DHT22;18502;43.574;1.276;2023-04-19T13:51:43;45.30;8.20
31979;DHT22;18502;43.574;1.276;2023-04-19T13:54:08;46.10;8.50
31979;DHT22;18502;43.574;1.276;2023-04-19T13:56:34;44.70;6.60
31979;DHT22;18502;43.574;1.276;2023-04-19T13:59:00;45.30;7.20
31979;DHT22;18502;43.574;1.276;2023-04-19T14:01:26;43.80;7.60
31979;DHT22;18502;43.574;1.276;2023-04-19T14:03:51;45.10;9.00
31979;DHT22;18502;43.574;1.276;2023-04-19T14:06:17;44.80;7.80
31979;DHT22;18502;43.574;1.276;2023-04-19T14:08:43;45.80;8.50
31979;DHT22;18502;43.574;1.276;2023-04-19T14:11:09;46.00;6.50
31979;DHT22;18502;43.574;1.276;2023-04-19T14:13:35;45.90;6.40
31979;DHT22;18502;43.574;1.276;2023-04-19T14:16:01;44.10;6.50
31979;DHT22;18502;43.574;1.276;2023-04-19T14:18:26;42.80;9.50
31979;DHT22;18502;43.574;1.276;2023-04-19T14:20:52;45.40;7.90
31979;DHT22;18502;43.574;1.276;2023-04-19T14:23:19;46.70;8.20
31979;DHT22;18502;43.574;1.276;2023-04-19T14:25:44;45.10;6.60
31979;DHT22;18502;43.574;1.276;2023-04-19T14:28:10;42.10;7.30
31979;DHT22;18502;43.574;1.276;2023-04-19T14:30:37;40.30;10.30
31979;DHT22;18502;43.574;1.276;2023-04-19T14:33:03;39.10;10.30
31979;DHT22;18502;43.574;1.276;2023-04-19T14:35:29;36.50;14.00
31979;DHT22;18502;43.574;1.276;2023-04-19T14:37:55;35.10;12.80
31979;DHT22;18502;43.574;1.276;2023-04-19T14:40:20;34.00;15.30
31979;DHT22;18502;43.574;1.276;2023-04-19T14:42:47;35.40;13.20
31979;DHT22;18502;43.574;1.276;2023-04-19T14:45:12;34.70;13.50
31979;DHT22;18502;43.574;1.276;2023-04-19T14:47:38;36.00;12.10
31979;DHT22;18502;43.574;1.276;2023-04-19T14:50:04;35.30;12.30
31979;DHT22;18502;43.574;1.276;2023-04-19T14:52:31;34.00;13.10
31979;DHT22;18502;43.574;1.276;2023-04-19T14:54:56;32.60;14.50
31979;DHT22;18502;43.574;1.276;2023-04-19T14:57:24;32.30;15.30
31979;DHT22;18502;43.574;1.276;2023-04-19T14:59:54;33.30;15.20
31979;DHT22;18502;43.574;1.276;2023-04-19T15:02:25;31.50;15.00
31979;DHT22;18502;43.574;1.276;2023-04-19T15:04:51;30.70;16.10
31979;DHT22;18502;43.574;1.276;2023-04-19T15:07:17;30.40;16.90
31979;DHT22;18502;43.574;1.276;2023-04-19T15:09:42;29.90;18.10
31979;DHT22;18502;43.574;1.276;2023-04-19T15:12:08;30.00;18.60
31979;DHT22;18502;43.574;1.276;2023-04-19T15:14:34;30.60;18.00
31979;DHT22;18502;43.574;1.276;2023-04-19T15:16:59;32.20;17.00
31979;DHT22;18502;43.574;1.276;2023-04-19T15:19:25;32.80;17.50
31979;DHT22;18502;43.574;1.276;2023-04-19T15:21:52;32.60;16.90
31979;DHT22;18502;43.574;1.276;2023-04-19T15:24:18;32.50;16.50
31979;DHT22;18502;43.574;1.276;2023-04-19T15:26:43;33.20;16.90
31979;DHT22;18502;43.574;1.276;2023-04-19T15:29:09;33.30;15.80
31979;DHT22;18502;43.574;1.276;2023-04-19T15:31:35;33.60;15.10
31979;DHT22;18502;43.574;1.276;2023-04-19T15:34:01;34.10;14.20
31979;DHT22;18502;43.574;1.276;2023-04-19T15:36:27;35.70;14.10
31979;DHT22;18502;43.574;1.276;2023-04-19T15:38:53;38.40;12.70
31979;DHT22;18502;43.574;1.276;2023-04-19T15:41:19;38.40;11.50
31979;DHT22;18502;43.574;1.276;2023-04-19T15:43:44;39.80;11.40
31979;DHT22;18502;43.574;1.276;2023-04-19T15:46:13;41.50;10.30
31979;DHT22;18502;43.574;1.276;2023-04-19T15:48:39;41.00;9.60
31979;DHT22;18502;43.574;1.276;2023-04-19T15:51:06;41.10;9.40
31979;DHT22;18502;43.574;1.276;2023-04-19T15:53:33;40.50;10.00
31979;DHT22;18502;43.574;1.276;2023-04-19T15:56:00;39.80;10.90
31979;DHT22;18502;43.574;1.276;2023-04-19T15:58:26;39.70;10.70
31979;DHT22;18502;43.574;1.276;2023-04-19T16:00:52;40.70;9.70
31979;DHT22;18502;43.574;1.276;2023-04-19T16:03:18;41.60;8.90
31979;DHT22;18502;43.574;1.276;2023-04-19T16:05:44;40.50;10.10
31979;DHT22;18502;43.574;1.276;2023-04-19T16:08:10;39.00;10.20
31979;DHT22;18502;43.574;1.276;2023-04-19T16:10:36;35.50;12.40
31979;DHT22;18502;43.574;1.276;2023-04-19T16:13:04;35.30;13.70
31979;DHT22;18502;43.574;1.276;2023-04-19T16:15:32;33.70;14.20
31979;DHT22;18502;43.574;1.276;2023-04-19T16:17:58;36.90;12.90
31979;DHT22;18502;43.574;1.276;2023-04-19T16:20:24;38.70;10.50
31979;DHT22;18502;43.574;1.276;2023-04-19T16:22:50;38.70;10.40
31979;DHT22;18502;43.574;1.276;2023-04-19T16:25:15;39.40;10.80
31979;DHT22;18502;43.574;1.276;2023-04-19T16:27:43;39.00;10.20
31979;DHT22;18502;43.574;1.276;2023-04-19T16:30:10;38.50;10.50
31979;DHT22;18502;43.574;1.276;2023-04-19T16:32:35;39.00;10.10
31979;DHT22;18502;43.574;1.276;2023-04-19T16:35:03;39.40;9.70
31979;DHT22;18502;43.574;1.276;2023-04-19T16:37:29;40.50;10.20
31979;DHT22;18502;43.574;1.276;2023-04-19T16:39:55;39.50;9.60
31979;DHT22;18502;43.574;1.276;2023-04-19T16:42:21;38.30;9.60
31979;DHT22;18502;43.574;1.276;2023-04-19T16:44:46;36.70;12.00
31979;DHT22;18502;43.574;1.276;2023-04-19T16:47:12;38.00;11.50
31979;DHT22;18502;43.574;1.276;2023-04-19T16:49:38;37.90;11.80
31979;DHT22;18502;43.574;1.276;2023-04-19T16:52:04;37.30;11.30
31979;DHT22;18502;43.574;1.276;2023-04-19T16:54:29;37.20;10.50
31979;DHT22;18502;43.574;1.276;2023-04-19T16:56:55;37.40;11.70
31979;DHT22;18502;43.574;1.276;2023-04-19T16:59:21;38.50;10.80
31979;DHT22;18502;43.574;1.276;2023-04-19T17:01:46;38.40;10.60
31979;DHT22;18502;43.574;1.276;2023-04-19T17:04:12;38.20;10.60
31979;DHT22;18502;43.574;1.276;2023-04-19T17:06:38;37.40;10.60
31979;DHT22;18502;43.574;1.276;2023-04-19T17:09:03;37.20;10.00
31979;DHT22;18502;43.574;1.276;2023-04-19T17:11:30;37.30;12.50
31979;DHT22;18502;43.574;1.276;2023-04-19T17:13:57;37.00;11.10
31979;DHT22;18502;43.574;1.276;2023-04-19T17:16:24;37.00;11.90
31979;DHT22;18502;43.574;1.276;2023-04-19T17:18:52;35.70;12.70
31979;DHT22;18502;43.574;1.276;2023-04-19T17:21:18;35.60;12.40
31979;DHT22;18502;43.574;1.276;2023-04-19T17:23:44;35.60;12.20
31979;DHT22;18502;43.574;1.276;2023-04-19T17:26:10;34.70;12.50
31979;DHT22;18502;43.574;1.276;2023-04-19T17:28:36;31.90;15.50
31979;DHT22;18502;43.574;1.276;2023-04-19T17:31:02;30.80;16.80
31979;DHT22;18502;43.574;1.276;2023-04-19T17:33:28;30.60;16.90
31979;DHT22;18502;43.574;1.276;2023-04-19T17:35:54;31.30;16.70
31979;DHT22;18502;43.574;1.276;2023-04-19T17:38:19;31.70;16.80
31979;DHT22;18502;43.574;1.276;2023-04-19T17:40:45;31.00;16.70
31979;DHT22;18502;43.574;1.276;2023-04-19T17:43:11;29.60;17.70
31979;DHT22;18502;43.574;1.276;2023-04-19T17:45:36;29.50;18.50
31979;DHT22;18502;43.574;1.276;2023-04-19T17:48:02;28.90;20.20
31979;DHT22;18502;43.574;1.276;2023-04-19T17:50:28;26.20;23.10
31979;DHT22;18502;43.574;1.276;2023-04-19T17:52:54;25.00;25.50
31979;DHT22;18502;43.574;1.276;2023-04-19T17:55:20;23.90;26.70
31979;DHT22;18502;43.574;1.276;2023-04-19T17:57:46;23.20;28.40
31979;DHT22;18502;43.574;1.276;2023-04-19T18:00:12;22.60;28.80
31979;DHT22;18502;43.574;1.276;2023-04-19T18:02:38;23.30;28.90
31979;DHT22;18502;43.574;1.276;2023-04-19T18:05:05;22.90;29.10
31979;DHT22;18502;43.574;1.276;2023-04-19T18:07:33;22.50;30.80
31979;DHT22;18502;43.574;1.276;2023-04-19T18:09:58;22.30;30.10
31979;DHT22;18502;43.574;1.276;2023-04-19T18:12:24;21.70;31.70
31979;DHT22;18502;43.574;1.276;2023-04-19T18:14:50;21.60;32.90
31979;DHT22;18502;43.574;1.276;2023-04-19T18:17:15;21.40;32.90
31979;DHT22;18502;43.574;1.276;2023-04-19T18:19:41;21.10;34.70
31979;DHT22;18502;43.574;1.276;2023-04-19T18:22:07;20.80;34.80
31979;DHT22;18502;43.574;1.276;2023-04-19T18:24:33;20.60;35.60
31979;DHT22;18502;43.574;1.276;2023-04-19T18:26:58;20.60;36.30
31979;DHT22;18502;43.574;1.276;2023-04-19T18:29:24;20.40;36.40
31979;DHT22;18502;43.574;1.276;2023-04-19T18:31:50;20.50;37.90
31979;DHT22;18502;43.574;1.276;2023-04-19T18:34:17;20.30;37.70
31979;DHT22;18502;43.574;1.276;2023-04-19T18:36:43;20.00;37.90
31979;DHT22;18502;43.574;1.276;2023-04-19T18:39:09;19.80;39.00
31979;DHT22;18502;43.574;1.276;2023-04-19T18:41:35;19.70;39.10
31979;DHT22;18502;43.574;1.276;2023-04-19T18:44:01;19.50;40.20
31979;DHT22;18502;43.574;1.276;2023-04-19T18:46:27;19.40;41.00
31979;DHT22;18502;43.574;1.276;2023-04-19T18:48:53;19.10;41.80
31979;DHT22;18502;43.574;1.276;2023-04-19T18:51:19;19.10;41.90
31979;DHT22;18502;43.574;1.276;2023-04-19T18:53:45;18.90;41.30
31979;DHT22;18502;43.574;1.276;2023-04-19T18:56:10;18.90;41.60
31979;DHT22;18502;43.574;1.276;2023-04-19T18:58:36;18.80;43.10
31979;DHT22;18502;43.574;1.276;2023-04-19T19:01:02;18.70;44.00
31979;DHT22;18502;43.574;1.276;2023-04-19T19:03:27;18.50;45.00
31979;DHT22;18502;43.574;1.276;2023-04-19T19:05:54;18.40;44.80
31979;DHT22;18502;43.574;1.276;2023-04-19T19:08:19;18.30;45.80
31979;DHT22;18502;43.574;1.276;2023-04-19T19:10:45;18.20;46.10
31979;DHT22;18502;43.574;1.276;2023-04-19T19:13:11;17.90;46.30
31979;DHT22;18502;43.574;1.276;2023-04-19T19:15:40;17.80;45.70
31979;DHT22;18502;43.574;1.276;2023-04-19T19:18:06;17.90;44.50
31979;DHT22;18502;43.574;1.276;2023-04-19T19:20:32;18.00;44.60
31979;DHT22;18502;43.574;1.276;2023-04-19T19:22:57;17.90;45.00
31979;DHT22;18502;43.574;1.276;2023-04-19T19:25:23;17.70;46.00
31979;DHT22;18502;43.574;1.276;2023-04-19T19:27:49;17.60;45.80
31979;DHT22;18502;43.574;1.276;2023-04-19T19:30:21;17.50;45.80
31979;DHT22;18502;43.574;1.276;2023-04-19T19:32:47;17.30;47.10
31979;DHT22;18502;43.574;1.276;2023-04-19T19:35:12;17.10;47.70
31979;DHT22;18502;43.574;1.276;2023-04-19T19:37:38;17.00;48.70
31979;DHT22;18502;43.574;1.276;2023-04-19T19:40:05;17.00;49.90
31979;DHT22;18502;43.574;1.276;2023-04-19T19:42:35;16.90;50.00
31979;DHT22;18502;43.574;1.276;2023-04-19T19:45:01;16.60;50.40
31979;DHT22;18502;43.574;1.276;2023-04-19T19:47:28;16.60;49.50
31979;DHT22;18502;43.574;1.276;2023-04-19T19:49:58;16.50;50.40
31979;DHT22;18502;43.574;1.276;2023-04-19T19:52:26;16.50;50.30
31979;DHT22;18502;43.574;1.276;2023-04-19T19:54:51;16.60;49.50
31979;DHT22;18502;43.574;1.276;2023-04-19T19:57:17;16.60;49.60
31979;DHT22;18502;43.574;1.276;2023-04-19T19:59:43;16.50;50.40
31979;DHT22;18502;43.574;1.276;2023-04-19T20:02:08;16.40;50.30
31979;DHT22;18502;43.574;1.276;2023-04-19T20:04:34;16.50;50.10
31979;DHT22;18502;43.574;1.276;2023-04-19T20:07:00;16.40;50.50
31979;DHT22;18502;43.574;1.276;2023-04-19T20:09:26;16.30;50.30
31979;DHT22;18502;43.574;1.276;2023-04-19T20:11:52;16.30;49.10
31979;DHT22;18502;43.574;1.276;2023-04-19T20:14:20;16.50;49.10
31979;DHT22;18502;43.574;1.276;2023-04-19T20:16:46;16.40;49.40
31979;DHT22;18502;43.574;1.276;2023-04-19T20:19:11;16.20;49.60
31979;DHT22;18502;43.574;1.276;2023-04-19T20:21:39;16.20;49.90
31979;DHT22;18502;43.574;1.276;2023-04-19T20:24:05;16.10;49.50
31979;DHT22;18502;43.574;1.276;2023-04-19T20:26:31;16.00;49.80
31979;DHT22;18502;43.574;1.276;2023-04-19T20:28:57;15.90;49.90
31979;DHT22;18502;43.574;1.276;2023-04-19T20:31:23;15.90;50.20
31979;DHT22;18502;43.574;1.276;2023-04-19T20:33:48;15.70;51.00
31979;DHT22;18502;43.574;1.276;2023-04-19T20:36:16;15.60;50.90
31979;DHT22;18502;43.574;1.276;2023-04-19T20:38:42;15.60;51.30
31979;DHT22;18502;43.574;1.276;2023-04-19T20:41:10;15.60;51.20
31979;DHT22;18502;43.574;1.276;2023-04-19T20:43:36;15.50;51.90
31979;DHT22;18502;43.574;1.276;2023-04-19T20:46:02;15.40;52.00
31979;DHT22;18502;43.574;1.276;2023-04-19T20:48:27;15.40;52.20
31979;DHT22;18502;43.574;1.276;2023-04-19T20:50:53;15.30;52.40
31979;DHT22;18502;43.574;1.276;2023-04-19T20:53:19;15.40;52.80
31979;DHT22;18502;43.574;1.276;2023-04-19T20:55:45;15.20;52.70
31979;DHT22;18502;43.574;1.276;2023-04-19T20:58:10;15.20;52.60
31979;DHT22;18502;43.574;1.276;2023-04-19T21:00:36;15.10;53.40
31979;DHT22;18502;43.574;1.276;2023-04-19T21:03:03;15.00;53.80
31979;DHT22;18502;43.574;1.276;2023-04-19T21:05:29;15.00;54.90
31979;DHT22;18502;43.574;1.276;2023-04-19T21:07:54;14.80;55.10
31979;DHT22;18502;43.574;1.276;2023-04-19T21:10:20;14.70;55.40
31979;DHT22;18502;43.574;1.276;2023-04-19T21:12:49;14.70;55.70
31979;DHT22;18502;43.574;1.276;2023-04-19T21:15:14;14.60;55.60
31979;DHT22;18502;43.574;1.276;2023-04-19T21:17:41;14.50;56.40